sensor_id;sensor_type;location;lat;lon;timestamp;temperature;humidity
68248;SHT30;55064;49.636;12.164;2024-01-15T00:00:16;-2.95;92.75
68248;SHT30;55064;49.636;12.164;2024-01-15T00:02:42;-2.90;92.75
68248;SHT30;55064;49.636;12.164;2024-01-15T00:05:07;-2.92;92.49
68248;SHT30;55064;49.636;12.164;2024-01-15T00:07:33;-2.96;92.40
68248;SHT30;55064;49.636;12.164;2024-01-15T00:09:58;-2.96;92.42
68248;SHT30;55064;49.636;12.164;2024-01-15T00:12:23;-2.95;92.29
68248;SHT30;55064;49.636;12.164;2024-01-15T00:14:49;-2.97;92.45
68248;SHT30;55064;49.636;12.164;2024-01-15T00:17:14;-2.93;92.60
68248;SHT30;55064;49.636;12.164;2024-01-15T00:19:39;-2.97;92.22
68248;SHT30;55064;49.636;12.164;2024-01-15T00:22:05;-2.95;92.42
68248;SHT30;55064;49.636;12.164;2024-01-15T00:24:30;-3.01;92.39
68248;SHT30;55064;49.636;12.164;2024-01-15T00:26:55;-3.03;92.55
68248;SHT30;55064;49.636;12.164;2024-01-15T00:29:21;-3.04;92.45
68248;SHT30;55064;49.636;12.164;2024-01-15T00:31:46;-3.08;92.14
68248;SHT30;55064;49.636;12.164;2024-01-15T00:34:12;-3.08;92.30
68248;SHT30;55064;49.636;12.164;2024-01-15T00:36:37;-3.13;92.21
68248;SHT30;55064;49.636;12.164;2024-01-15T00:39:02;-3.23;92.61
68248;SHT30;55064;49.636;12.164;2024-01-15T00:41:30;-3.20;92.69
68248;SHT30;55064;49.636;12.164;2024-01-15T00:43:55;-3.23;92.68
68248;SHT30;55064;49.636;12.164;2024-01-15T00:46:21;-3.24;92.80
68248;SHT30;55064;49.636;12.164;2024-01-15T00:48:46;-3.20;93.00
68248;SHT30;55064;49.636;12.164;2024-01-15T00:51:12;-3.24;92.85
68248;SHT30;55064;49.636;12.164;2024-01-15T00:53:38;-3.27;92.69
68248;SHT30;55064;49.636;12.164;2024-01-15T00:56:03;-3.30;92.58
68248;SHT30;55064;49.636;12.164;2024-01-15T00:58:29;-3.40;92.55
68248;SHT30;55064;49.636;12.164;2024-01-15T01:00:54;-3.50;92.43
68248;SHT30;55064;49.636;12.164;2024-01-15T01:03:20;-3.50;92.46
68248;SHT30;55064;49.636;12.164;2024-01-15T01:05:48;-3.56;92.54
68248;SHT30;55064;49.636;12.164;2024-01-15T01:08:15;-3.61;92.58
68248;SHT30;55064;49.636;12.164;2024-01-15T01:10:40;-3.62;92.90
68248;SHT30;55064;49.636;12.164;2024-01-15T01:13:08;-3.65;93.04
68248;SHT30;55064;49.636;12.164;2024-01-15T01:15:33;-3.72;93.08
68248;SHT30;55064;49.636;12.164;2024-01-15T01:17:59;-3.79;92.72
68248;SHT30;55064;49.636;12.164;2024-01-15T01:20:24;-3.83;92.64
68248;SHT30;55064;49.636;12.164;2024-01-15T01:22:49;-3.86;92.92
68248;SHT30;55064;49.636;12.164;2024-01-15T01:25:15;-3.89;92.91
68248;SHT30;55064;49.636;12.164;2024-01-15T01:27:40;-3.91;93.12
68248;SHT30;55064;49.636;12.164;2024-01-15T01:30:06;-3.94;93.11
68248;SHT30;55064;49.636;12.164;2024-01-15T01:32:32;-3.99;93.09
68248;SHT30;55064;49.636;12.164;2024-01-15T01:34:57;-4.00;93.07
68248;SHT30;55064;49.636;12.164;2024-01-15T01:37:23;-4.00;93.27
68248;SHT30;55064;49.636;12.164;2024-01-15T01:39:48;-4.00;93.15
68248;SHT30;55064;49.636;12.164;2024-01-15T01:42:13;-4.06;93.20
68248;SHT30;55064;49.636;12.164;2024-01-15T01:44:39;-4.01;93.42
68248;SHT30;55064;49.636;12.164;2024-01-15T01:47:05;-4.06;93.40
68248;SHT30;55064;49.636;12.164;2024-01-15T01:49:30;-4.11;93.61
68248;SHT30;55064;49.636;12.164;2024-01-15T01:51:57;-4.06;93.89
68248;SHT30;55064;49.636;12.164;2024-01-15T01:54:24;-4.03;93.89
68248;SHT30;55064;49.636;12.164;2024-01-15T01:56:50;-4.07;93.77
68248;SHT30;55064;49.636;12.164;2024-01-15T01:59:16;-3.99;93.76
68248;SHT30;55064;49.636;12.164;2024-01-15T02:01:43;-4.03;93.60
68248;SHT30;55064;49.636;12.164;2024-01-15T02:04:09;-4.03;93.64
68248;SHT30;55064;49.636;12.164;2024-01-15T02:06:34;-4.03;93.67
68248;SHT30;55064;49.636;12.164;2024-01-15T02:09:00;-3.94;93.68
68248;SHT30;55064;49.636;12.164;2024-01-15T02:11:26;-4.01;93.50
68248;SHT30;55064;49.636;12.164;2024-01-15T02:13:51;-3.97;93.40
68248;SHT30;55064;49.636;12.164;2024-01-15T02:16:16;-4.03;93.50
68248;SHT30;55064;49.636;12.164;2024-01-15T02:18:43;-3.97;93.61
68248;SHT30;55064;49.636;12.164;2024-01-15T02:21:09;-3.96;93.62
68248;SHT30;55064;49.636;12.164;2024-01-15T02:23:36;-3.96;93.43
68248;SHT30;55064;49.636;12.164;2024-01-15T02:26:01;-3.94;93.45
68248;SHT30;55064;49.636;12.164;2024-01-15T02:28:27;-3.93;93.34
68248;SHT30;55064;49.636;12.164;2024-01-15T02:30:52;-3.89;93.48
68248;SHT30;55064;49.636;12.164;2024-01-15T02:33:18;-3.82;93.34
68248;SHT30;55064;49.636;12.164;2024-01-15T02:35:43;-3.91;93.27
68248;SHT30;55064;49.636;12.164;2024-01-15T02:38:08;-3.87;93.34
68248;SHT30;55064;49.636;12.164;2024-01-15T02:40:34;-3.85;93.56
68248;SHT30;55064;49.636;12.164;2024-01-15T02:43:00;-3.89;93.73
68248;SHT30;55064;49.636;12.164;2024-01-15T02:45:26;-3.96;93.89
68248;SHT30;55064;49.636;12.164;2024-01-15T02:47:52;-3.97;94.08
68248;SHT30;55064;49.636;12.164;2024-01-15T02:50:17;-3.97;94.24
68248;SHT30;55064;49.636;12.164;2024-01-15T02:52:42;-3.96;94.18
68248;SHT30;55064;49.636;12.164;2024-01-15T02:55:08;-3.94;94.17
68248;SHT30;55064;49.636;12.164;2024-01-15T02:57:33;-3.93;94.13
68248;SHT30;55064;49.636;12.164;2024-01-15T02:59:59;-3.94;93.91
68248;SHT30;55064;49.636;12.164;2024-01-15T03:02:25;-3.90;94.08
68248;SHT30;55064;49.636;12.164;2024-01-15T03:04:50;-3.87;94.12
68248;SHT30;55064;49.636;12.164;2024-01-15T03:07:15;-3.89;93.75
68248;SHT30;55064;49.636;12.164;2024-01-15T03:09:41;-3.90;93.94
68248;SHT30;55064;49.636;12.164;2024-01-15T03:12:07;-3.87;94.03
68248;SHT30;55064;49.636;12.164;2024-01-15T03:14:32;-3.86;93.96
68248;SHT30;55064;49.636;12.164;2024-01-15T03:16:57;-3.87;93.92
68248;SHT30;55064;49.636;12.164;2024-01-15T03:19:23;-3.85;93.94
68248;SHT30;55064;49.636;12.164;2024-01-15T03:21:48;-3.85;94.12
68248;SHT30;55064;49.636;12.164;2024-01-15T03:24:14;-3.78;93.73
68248;SHT30;55064;49.636;12.164;2024-01-15T03:26:39;-3.86;93.63
68248;SHT30;55064;49.636;12.164;2024-01-15T03:29:04;-3.80;93.58
68248;SHT30;55064;49.636;12.164;2024-01-15T03:31:30;-3.80;93.62
68248;SHT30;55064;49.636;12.164;2024-01-15T03:33:55;-3.80;93.47
68248;SHT30;55064;49.636;12.164;2024-01-15T03:36:21;-3.79;93.34
68248;SHT30;55064;49.636;12.164;2024-01-15T03:38:46;-3.80;93.31
68248;SHT30;55064;49.636;12.164;2024-01-15T03:41:12;-3.76;93.45
68248;SHT30;55064;49.636;12.164;2024-01-15T03:43:37;-3.79;93.57
68248;SHT30;55064;49.636;12.164;2024-01-15T03:46:03;-3.76;93.55
68248;SHT30;55064;49.636;12.164;2024-01-15T03:48:29;-3.76;93.57
68248;SHT30;55064;49.636;12.164;2024-01-15T03:50:55;-3.79;93.76
68248;SHT30;55064;49.636;12.164;2024-01-15T03:53:20;-3.76;93.72
68248;SHT30;55064;49.636;12.164;2024-01-15T03:55:45;-3.75;93.79
68248;SHT30;55064;49.636;12.164;2024-01-15T03:58:11;-3.68;93.76
68248;SHT30;55064;49.636;12.164;2024-01-15T04:00:37;-3.68;93.34
68248;SHT30;55064;49.636;12.164;2024-01-15T04:03:02;-3.73;93.67
68248;SHT30;55064;49.636;12.164;2024-01-15T04:05:27;-3.72;93.79
68248;SHT30;55064;49.636;12.164;2024-01-15T04:07:53;-3.69;93.73
68248;SHT30;55064;49.636;12.164;2024-01-15T04:10:18;-3.66;93.59
68248;SHT30;55064;49.636;12.164;2024-01-15T04:12:43;-3.63;93.65
68248;SHT30;55064;49.636;12.164;2024-01-15T04:15:12;-3.62;93.61
68248;SHT30;55064;49.636;12.164;2024-01-15T04:17:37;-3.62;93.62
68248;SHT30;55064;49.636;12.164;2024-01-15T04:20:03;-3.59;93.39
68248;SHT30;55064;49.636;12.164;2024-01-15T04:22:28;-3.54;93.42
68248;SHT30;55064;49.636;12.164;2024-01-15T04:24:54;-3.56;93.61
68248;SHT30;55064;49.636;12.164;2024-01-15T04:27:19;-3.56;93.57
68248;SHT30;55064;49.636;12.164;2024-01-15T04:29:44;-3.58;93.41
68248;SHT30;55064;49.636;12.164;2024-01-15T04:32:10;-3.59;93.44
68248;SHT30;55064;49.636;12.164;2024-01-15T04:34:35;-3.58;93.21
68248;SHT30;55064;49.636;12.164;2024-01-15T04:37:01;-3.52;93.09
68248;SHT30;55064;49.636;12.164;2024-01-15T04:39:27;-3.56;93.20
68248;SHT30;55064;49.636;12.164;2024-01-15T04:41:52;-3.50;93.33
68248;SHT30;55064;49.636;12.164;2024-01-15T04:44:18;-3.47;93.14
68248;SHT30;55064;49.636;12.164;2024-01-15T04:46:43;-3.47;93.14
68248;SHT30;55064;49.636;12.164;2024-01-15T04:49:09;-3.47;93.46
68248;SHT30;55064;49.636;12.164;2024-01-15T04:51:34;-3.45;93.17
68248;SHT30;55064;49.636;12.164;2024-01-15T04:54:00;-3.47;93.40
68248;SHT30;55064;49.636;12.164;2024-01-15T04:56:26;-3.44;93.60
68248;SHT30;55064;49.636;12.164;2024-01-15T04:58:51;-3.40;93.39
68248;SHT30;55064;49.636;12.164;2024-01-15T05:01:16;-3.34;93.48
68248;SHT30;55064;49.636;12.164;2024-01-15T05:03:42;-3.33;93.65
68248;SHT30;55064;49.636;12.164;2024-01-15T05:06:08;-3.28;93.75
68248;SHT30;55064;49.636;12.164;2024-01-15T05:08:33;-3.25;93.58
68248;SHT30;55064;49.636;12.164;2024-01-15T05:10:58;-3.23;93.53
68248;SHT30;55064;49.636;12.164;2024-01-15T05:13:24;-3.17;93.55
68248;SHT30;55064;49.636;12.164;2024-01-15T05:15:49;-3.16;93.46
68248;SHT30;55064;49.636;12.164;2024-01-15T05:18:15;-3.17;93.60
68248;SHT30;55064;49.636;12.164;2024-01-15T05:20:40;-3.17;93.55
68248;SHT30;55064;49.636;12.164;2024-01-15T05:23:05;-3.16;93.80
68248;SHT30;55064;49.636;12.164;2024-01-15T05:25:31;-3.13;93.96
68248;SHT30;55064;49.636;12.164;2024-01-15T05:27:56;-3.10;94.14
68248;SHT30;55064;49.636;12.164;2024-01-15T05:30:22;-3.08;93.95
68248;SHT30;55064;49.636;12.164;2024-01-15T05:32:47;-3.08;94.05
68248;SHT30;55064;49.636;12.164;2024-01-15T05:35:12;-3.06;93.99
68248;SHT30;55064;49.636;12.164;2024-01-15T05:37:43;-3.03;93.94
68248;SHT30;55064;49.636;12.164;2024-01-15T05:40:08;-3.01;93.99
68248;SHT30;55064;49.636;12.164;2024-01-15T05:42:34;-3.04;94.11
68248;SHT30;55064;49.636;12.164;2024-01-15T05:44:59;-3.01;93.85
68248;SHT30;55064;49.636;12.164;2024-01-15T05:47:25;-3.00;94.19
68248;SHT30;55064;49.636;12.164;2024-01-15T05:49:50;-2.93;93.90
68248;SHT30;55064;49.636;12.164;2024-01-15T05:52:15;-2.96;93.97
68248;SHT30;55064;49.636;12.164;2024-01-15T05:54:41;-2.96;94.07
68248;SHT30;55064;49.636;12.164;2024-01-15T05:57:06;-2.95;94.16
68248;SHT30;55064;49.636;12.164;2024-01-15T05:59:32;-2.93;94.08
68248;SHT30;55064;49.636;12.164;2024-01-15T06:01:59;-2.89;94.27
68248;SHT30;55064;49.636;12.164;2024-01-15T06:04:24;-2.90;94.37
68248;SHT30;55064;49.636;12.164;2024-01-15T06:06:50;-2.92;94.59
68248;SHT30;55064;49.636;12.164;2024-01-15T06:09:15;-2.87;94.53
68248;SHT30;55064;49.636;12.164;2024-01-15T06:11:40;-2.90;94.44
68248;SHT30;55064;49.636;12.164;2024-01-15T06:14:06;-2.86;94.60
68248;SHT30;55064;49.636;12.164;2024-01-15T06:16:31;-2.86;94.77
68248;SHT30;55064;49.636;12.164;2024-01-15T06:18:56;-2.87;94.77
68248;SHT30;55064;49.636;12.164;2024-01-15T06:21:22;-2.82;94.92
68248;SHT30;55064;49.636;12.164;2024-01-15T06:23:47;-2.83;94.86
68248;SHT30;55064;49.636;12.164;2024-01-15T06:26:13;-2.82;94.95
68248;SHT30;55064;49.636;12.164;2024-01-15T06:28:38;-2.79;95.03
68248;SHT30;55064;49.636;12.164;2024-01-15T06:31:04;-2.79;95.08
68248;SHT30;55064;49.636;12.164;2024-01-15T06:33:30;-2.79;95.02
68248;SHT30;55064;49.636;12.164;2024-01-15T06:35:56;-2.73;95.23
68248;SHT30;55064;49.636;12.164;2024-01-15T06:38:21;-2.78;95.27
68248;SHT30;55064;49.636;12.164;2024-01-15T06:40:47;-2.78;95.38
68248;SHT30;55064;49.636;12.164;2024-01-15T06:43:14;-2.76;95.28
68248;SHT30;55064;49.636;12.164;2024-01-15T06:45:40;-2.75;95.24
68248;SHT30;55064;49.636;12.164;2024-01-15T06:48:05;-2.75;95.40
68248;SHT30;55064;49.636;12.164;2024-01-15T06:50:32;-2.72;95.58
68248;SHT30;55064;49.636;12.164;2024-01-15T06:52:57;-2.68;95.68
68248;SHT30;55064;49.636;12.164;2024-01-15T06:55:23;-2.70;95.74
68248;SHT30;55064;49.636;12.164;2024-01-15T06:57:48;-2.72;95.90
68248;SHT30;55064;49.636;12.164;2024-01-15T07:00:14;-2.72;96.17
68248;SHT30;55064;49.636;12.164;2024-01-15T07:02:40;-2.73;96.62
68248;SHT30;55064;49.636;12.164;2024-01-15T07:05:05;-2.75;97.05
68248;SHT30;55064;49.636;12.164;2024-01-15T07:07:31;-2.75;96.90
68248;SHT30;55064;49.636;12.164;2024-01-15T07:09:56;-2.76;97.02
68248;SHT30;55064;49.636;12.164;2024-01-15T07:12:22;-2.78;97.20
68248;SHT30;55064;49.636;12.164;2024-01-15T07:14:47;-2.75;97.40
68248;SHT30;55064;49.636;12.164;2024-01-15T07:17:12;-2.78;97.71
68248;SHT30;55064;49.636;12.164;2024-01-15T07:19:38;-2.76;97.82
68248;SHT30;55064;49.636;12.164;2024-01-15T07:22:03;-2.75;98.02
68248;SHT30;55064;49.636;12.164;2024-01-15T07:24:29;-2.78;98.09
68248;SHT30;55064;49.636;12.164;2024-01-15T07:26:55;-2.72;97.70
68248;SHT30;55064;49.636;12.164;2024-01-15T07:29:20;-2.70;97.76
68248;SHT30;55064;49.636;12.164;2024-01-15T07:31:51;-2.69;97.67
68248;SHT30;55064;49.636;12.164;2024-01-15T07:34:17;-2.73;97.67
68248;SHT30;55064;49.636;12.164;2024-01-15T07:36:45;-2.75;97.67
68248;SHT30;55064;49.636;12.164;2024-01-15T07:39:11;-2.73;97.59
68248;SHT30;55064;49.636;12.164;2024-01-15T07:41:36;-2.70;97.32
68248;SHT30;55064;49.636;12.164;2024-01-15T07:44:02;-2.69;97.20
68248;SHT30;55064;49.636;12.164;2024-01-15T07:46:28;-2.65;97.47
68248;SHT30;55064;49.636;12.164;2024-01-15T07:48:53;-2.68;98.09
68248;SHT30;55064;49.636;12.164;2024-01-15T07:51:24;-2.68;98.07
68248;SHT30;55064;49.636;12.164;2024-01-15T07:53:53;-2.64;98.27
68248;SHT30;55064;49.636;12.164;2024-01-15T07:56:18;-2.62;98.06
68248;SHT30;55064;49.636;12.164;2024-01-15T07:58:43;-2.59;97.87
68248;SHT30;55064;49.636;12.164;2024-01-15T08:01:09;-2.61;97.73
68248;SHT30;55064;49.636;12.164;2024-01-15T08:03:34;-2.61;97.50
68248;SHT30;55064;49.636;12.164;2024-01-15T08:05:59;-2.51;97.10
68248;SHT30;55064;49.636;12.164;2024-01-15T08:08:25;-2.51;96.80
68248;SHT30;55064;49.636;12.164;2024-01-15T08:10:52;-2.47;96.38
68248;SHT30;55064;49.636;12.164;2024-01-15T08:13:18;-2.44;96.21
68248;SHT30;55064;49.636;12.164;2024-01-15T08:15:44;-2.41;96.15
68248;SHT30;55064;49.636;12.164;2024-01-15T08:18:09;-2.37;96.25
68248;SHT30;55064;49.636;12.164;2024-01-15T08:20:34;-2.40;96.34
68248;SHT30;55064;49.636;12.164;2024-01-15T08:23:00;-2.34;96.45
68248;SHT30;55064;49.636;12.164;2024-01-15T08:25:25;-2.33;96.58
68248;SHT30;55064;49.636;12.164;2024-01-15T08:27:51;-2.27;96.63
68248;SHT30;55064;49.636;12.164;2024-01-15T08:30:17;-2.27;96.39
68248;SHT30;55064;49.636;12.164;2024-01-15T08:32:44;-2.29;96.52
68248;SHT30;55064;49.636;12.164;2024-01-15T08:35:10;-2.27;96.41
68248;SHT30;55064;49.636;12.164;2024-01-15T08:37:36;-2.24;96.32
68248;SHT30;55064;49.636;12.164;2024-01-15T08:40:02;-2.26;95.90
68248;SHT30;55064;49.636;12.164;2024-01-15T08:42:28;-2.23;95.80
68248;SHT30;55064;49.636;12.164;2024-01-15T08:44:53;-2.21;95.75
68248;SHT30;55064;49.636;12.164;2024-01-15T08:47:19;-2.23;95.61
68248;SHT30;55064;49.636;12.164;2024-01-15T08:49:44;-2.23;95.75
68248;SHT30;55064;49.636;12.164;2024-01-15T08:52:10;-2.19;95.13
68248;SHT30;55064;49.636;12.164;2024-01-15T08:54:36;-2.15;95.13
68248;SHT30;55064;49.636;12.164;2024-01-15T08:57:01;-2.17;95.15
68248;SHT30;55064;49.636;12.164;2024-01-15T08:59:26;-2.15;94.86
68248;SHT30;55064;49.636;12.164;2024-01-15T09:01:52;-2.17;94.68
68248;SHT30;55064;49.636;12.164;2024-01-15T09:04:18;-2.15;94.63
68248;SHT30;55064;49.636;12.164;2024-01-15T09:06:47;-2.13;94.27
68248;SHT30;55064;49.636;12.164;2024-01-15T09:09:13;-2.10;94.21
68248;SHT30;55064;49.636;12.164;2024-01-15T09:11:42;-2.09;94.55
68248;SHT30;55064;49.636;12.164;2024-01-15T09:14:08;-2.04;94.33
68248;SHT30;55064;49.636;12.164;2024-01-15T09:16:34;-2.04;94.04
68248;SHT30;55064;49.636;12.164;2024-01-15T09:19:00;-2.00;93.91
68248;SHT30;55064;49.636;12.164;2024-01-15T09:21:25;-1.97;93.85
68248;SHT30;55064;49.636;12.164;2024-01-15T09:23:51;-1.94;94.02
68248;SHT30;55064;49.636;12.164;2024-01-15T09:26:17;-1.90;94.04
68248;SHT30;55064;49.636;12.164;2024-01-15T09:28:42;-1.83;94.06
68248;SHT30;55064;49.636;12.164;2024-01-15T09:31:07;-1.75;94.00
68248;SHT30;55064;49.636;12.164;2024-01-15T09:33:33;-1.68;93.84
68248;SHT30;55064;49.636;12.164;2024-01-15T09:36:02;-1.47;93.89
68248;SHT30;55064;49.636;12.164;2024-01-15T09:38:31;-1.41;93.12
68248;SHT30;55064;49.636;12.164;2024-01-15T09:40:57;-1.31;93.05
68248;SHT30;55064;49.636;12.164;2024-01-15T09:43:22;-1.31;92.33
68248;SHT30;55064;49.636;12.164;2024-01-15T09:45:49;-1.10;91.68
68248;SHT30;55064;49.636;12.164;2024-01-15T09:48:15;-1.11;91.47
68248;SHT30;55064;49.636;12.164;2024-01-15T09:50:40;-1.19;91.85
68248;SHT30;55064;49.636;12.164;2024-01-15T09:53:06;-1.37;91.92
68248;SHT30;55064;49.636;12.164;2024-01-15T09:55:32;-1.40;92.18
68248;SHT30;55064;49.636;12.164;2024-01-15T09:57:59;-1.47;92.63
68248;SHT30;55064;49.636;12.164;2024-01-15T10:00:26;-1.45;92.02
68248;SHT30;55064;49.636;12.164;2024-01-15T10:02:52;-1.48;92.46
68248;SHT30;55064;49.636;12.164;2024-01-15T10:05:18;-1.48;92.19
68248;SHT30;55064;49.636;12.164;2024-01-15T10:07:43;-1.51;92.26
68248;SHT30;55064;49.636;12.164;2024-01-15T10:10:11;-1.54;92.60
68248;SHT30;55064;49.636;12.164;2024-01-15T10:12:36;-1.54;92.04
68248;SHT30;55064;49.636;12.164;2024-01-15T10:15:03;-1.56;92.63
68248;SHT30;55064;49.636;12.164;2024-01-15T10:17:29;-1.59;92.54
68248;SHT30;55064;49.636;12.164;2024-01-15T10:19:56;-1.56;92.50
68248;SHT30;55064;49.636;12.164;2024-01-15T10:22:21;-1.55;92.54
68248;SHT30;55064;49.636;12.164;2024-01-15T10:24:47;-1.55;92.21
68248;SHT30;55064;49.636;12.164;2024-01-15T10:27:12;-1.58;92.14
68248;SHT30;55064;49.636;12.164;2024-01-15T10:29:38;-1.50;92.35
68248;SHT30;55064;49.636;12.164;2024-01-15T10:32:07;-1.50;92.14
68248;SHT30;55064;49.636;12.164;2024-01-15T10:34:37;-1.48;92.08
68248;SHT30;55064;49.636;12.164;2024-01-15T10:37:03;-1.51;91.88
68248;SHT30;55064;49.636;12.164;2024-01-15T10:39:29;-1.52;92.01
68248;SHT30;55064;49.636;12.164;2024-01-15T10:41:55;-1.50;92.22
68248;SHT30;55064;49.636;12.164;2024-01-15T10:44:20;-1.52;92.05
68248;SHT30;55064;49.636;12.164;2024-01-15T10:46:46;-1.50;92.09
68248;SHT30;55064;49.636;12.164;2024-01-15T10:49:12;-1.47;91.95
68248;SHT30;55064;49.636;12.164;2024-01-15T10:51:38;-1.45;91.89
68248;SHT30;55064;49.636;12.164;2024-01-15T10:54:04;-1.45;92.18
68248;SHT30;55064;49.636;12.164;2024-01-15T10:56:31;-1.44;92.09
68248;SHT30;55064;49.636;12.164;2024-01-15T10:58:57;-1.36;92.12
68248;SHT30;55064;49.636;12.164;2024-01-15T11:01:23;-1.40;92.05
68248;SHT30;55064;49.636;12.164;2024-01-15T11:03:49;-1.40;91.69
68248;SHT30;55064;49.636;12.164;2024-01-15T11:06:19;-1.36;91.75
68248;SHT30;55064;49.636;12.164;2024-01-15T11:08:50;-1.27;91.93
68248;SHT30;55064;49.636;12.164;2024-01-15T11:11:17;-1.34;91.73
68248;SHT30;55064;49.636;12.164;2024-01-15T11:13:43;-1.34;91.95
68248;SHT30;55064;49.636;12.164;2024-01-15T11:16:12;-1.34;91.63
68248;SHT30;55064;49.636;12.164;2024-01-15T11:18:40;-1.36;91.74
68248;SHT30;55064;49.636;12.164;2024-01-15T11:23:47;-1.33;92.06
68248;SHT30;55064;49.636;12.164;2024-01-15T11:26:38;-1.34;92.02
68248;SHT30;55064;49.636;12.164;2024-01-15T11:29:10;-1.37;91.84
68248;SHT30;55064;49.636;12.164;2024-01-15T11:37:20;-1.36;92.01
68248;SHT30;55064;49.636;12.164;2024-01-15T11:39:46;-1.24;92.25
68248;SHT30;55064;49.636;12.164;2024-01-15T11:42:12;-1.28;91.95
68248;SHT30;55064;49.636;12.164;2024-01-15T11:44:38;-1.20;92.13
68248;SHT30;55064;49.636;12.164;2024-01-15T11:47:06;-1.26;92.32
68248;SHT30;55064;49.636;12.164;2024-01-15T11:52:22;-1.20;92.21
68248;SHT30;55064;49.636;12.164;2024-01-15T11:55:11;-1.19;92.26
68248;SHT30;55064;49.636;12.164;2024-01-15T11:57:41;-1.14;92.09
68248;SHT30;55064;49.636;12.164;2024-01-15T12:00:09;-1.09;91.90
68248;SHT30;55064;49.636;12.164;2024-01-15T12:02:35;-1.03;91.64
68248;SHT30;55064;49.636;12.164;2024-01-15T12:05:01;-1.16;91.49
68248;SHT30;55064;49.636;12.164;2024-01-15T12:07:26;-1.14;91.70
68248;SHT30;55064;49.636;12.164;2024-01-15T12:09:52;-1.16;92.06
68248;SHT30;55064;49.636;12.164;2024-01-15T12:12:45;-1.13;92.20
68248;SHT30;55064;49.636;12.164;2024-01-15T12:15:12;-1.20;92.27
68248;SHT30;55064;49.636;12.164;2024-01-15T12:17:38;-1.23;92.34
68248;SHT30;55064;49.636;12.164;2024-01-15T12:20:07;-1.27;92.75
68248;SHT30;55064;49.636;12.164;2024-01-15T12:22:33;-1.28;93.20
68248;SHT30;55064;49.636;12.164;2024-01-15T12:24:58;-1.33;93.95
68248;SHT30;55064;49.636;12.164;2024-01-15T12:27:24;-1.41;94.47
68248;SHT30;55064;49.636;12.164;2024-01-15T12:29:50;-1.44;94.41
68248;SHT30;55064;49.636;12.164;2024-01-15T12:32:15;-1.44;94.71
68248;SHT30;55064;49.636;12.164;2024-01-15T12:34:40;-1.38;94.60
68248;SHT30;55064;49.636;12.164;2024-01-15T12:37:09;-1.34;94.26
68248;SHT30;55064;49.636;12.164;2024-01-15T12:39:36;-1.27;93.91
68248;SHT30;55064;49.636;12.164;2024-01-15T12:42:02;-1.16;93.63
68248;SHT30;55064;49.636;12.164;2024-01-15T12:44:28;-1.04;93.40
68248;SHT30;55064;49.636;12.164;2024-01-15T12:46:53;-1.07;92.89
68248;SHT30;55064;49.636;12.164;2024-01-15T12:49:19;-1.03;92.94
68248;SHT30;55064;49.636;12.164;2024-01-15T12:51:56;-1.01;93.11
68248;SHT30;55064;49.636;12.164;2024-01-15T12:54:22;-1.03;93.17
68248;SHT30;55064;49.636;12.164;2024-01-15T12:56:48;-1.06;92.71
68248;SHT30;55064;49.636;12.164;2024-01-15T12:59:14;-1.06;93.09
68248;SHT30;55064;49.636;12.164;2024-01-15T13:01:39;-1.07;92.93
68248;SHT30;55064;49.636;12.164;2024-01-15T13:04:06;-1.14;92.92
68248;SHT30;55064;49.636;12.164;2024-01-15T13:06:34;-1.09;93.04
68248;SHT30;55064;49.636;12.164;2024-01-15T13:08:59;-1.07;92.98
68248;SHT30;55064;49.636;12.164;2024-01-15T13:11:24;-0.97;93.03
68248;SHT30;55064;49.636;12.164;2024-01-15T13:13:50;-0.88;92.61
68248;SHT30;55064;49.636;12.164;2024-01-15T13:16:16;-0.90;92.12
68248;SHT30;55064;49.636;12.164;2024-01-15T13:18:41;-0.85;92.09
68248;SHT30;55064;49.636;12.164;2024-01-15T13:21:06;-0.82;92.08
68248;SHT30;55064;49.636;12.164;2024-01-15T13:23:32;-0.82;91.83
68248;SHT30;55064;49.636;12.164;2024-01-15T13:25:57;-0.92;91.74
68248;SHT30;55064;49.636;12.164;2024-01-15T13:28:23;-1.00;91.81
68248;SHT30;55064;49.636;12.164;2024-01-15T13:30:48;-0.99;91.98
68248;SHT30;55064;49.636;12.164;2024-01-15T13:33:14;-1.09;92.32
68248;SHT30;55064;49.636;12.164;2024-01-15T13:35:39;-1.09;92.55
68248;SHT30;55064;49.636;12.164;2024-01-15T13:38:04;-1.10;92.78
68248;SHT30;55064;49.636;12.164;2024-01-15T13:40:30;-1.07;92.91
68248;SHT30;55064;49.636;12.164;2024-01-15T13:42:55;-1.11;92.86
68248;SHT30;55064;49.636;12.164;2024-01-15T13:45:21;-1.13;92.84
68248;SHT30;55064;49.636;12.164;2024-01-15T13:47:46;-1.13;92.76
68248;SHT30;55064;49.636;12.164;2024-01-15T13:50:11;-1.19;93.28
68248;SHT30;55064;49.636;12.164;2024-01-15T13:52:37;-1.16;92.89
68248;SHT30;55064;49.636;12.164;2024-01-15T13:55:03;-1.11;92.64
68248;SHT30;55064;49.636;12.164;2024-01-15T13:57:28;-1.11;91.88
68248;SHT30;55064;49.636;12.164;2024-01-15T13:59:54;-1.07;91.92
68248;SHT30;55064;49.636;12.164;2024-01-15T14:02:20;-1.09;92.03
68248;SHT30;55064;49.636;12.164;2024-01-15T14:04:46;-1.10;92.07
68248;SHT30;55064;49.636;12.164;2024-01-15T14:07:12;-1.09;92.10
68248;SHT30;55064;49.636;12.164;2024-01-15T14:09:37;-1.04;92.16
68248;SHT30;55064;49.636;12.164;2024-01-15T14:12:03;-1.10;91.99
68248;SHT30;55064;49.636;12.164;2024-01-15T14:14:28;-1.11;92.13
68248;SHT30;55064;49.636;12.164;2024-01-15T14:16:54;-1.10;92.28
68248;SHT30;55064;49.636;12.164;2024-01-15T14:19:19;-1.09;92.27
68248;SHT30;55064;49.636;12.164;2024-01-15T14:21:45;-1.10;92.63
68248;SHT30;55064;49.636;12.164;2024-01-15T14:24:11;-1.11;92.51
68248;SHT30;55064;49.636;12.164;2024-01-15T14:26:36;-1.11;92.26
68248;SHT30;55064;49.636;12.164;2024-01-15T14:29:01;-1.09;92.17
68248;SHT30;55064;49.636;12.164;2024-01-15T14:31:27;-1.09;92.17
68248;SHT30;55064;49.636;12.164;2024-01-15T14:33:53;-1.07;91.73
68248;SHT30;55064;49.636;12.164;2024-01-15T14:36:20;-1.07;91.58
68248;SHT30;55064;49.636;12.164;2024-01-15T14:38:45;-1.09;91.85
68248;SHT30;55064;49.636;12.164;2024-01-15T14:41:10;-1.06;91.50
68248;SHT30;55064;49.636;12.164;2024-01-15T14:43:36;-1.04;91.41
68248;SHT30;55064;49.636;12.164;2024-01-15T14:46:01;-1.01;91.54
68248;SHT30;55064;49.636;12.164;2024-01-15T14:48:27;-1.04;91.54
68248;SHT30;55064;49.636;12.164;2024-01-15T14:50:52;-1.06;91.31
68248;SHT30;55064;49.636;12.164;2024-01-15T14:53:17;-1.03;91.41
68248;SHT30;55064;49.636;12.164;2024-01-15T14:55:43;-1.03;91.51
68248;SHT30;55064;49.636;12.164;2024-01-15T14:58:08;-1.09;91.54
68248;SHT30;55064;49.636;12.164;2024-01-15T15:00:34;-1.07;91.73
68248;SHT30;55064;49.636;12.164;2024-01-15T15:02:59;-1.04;91.68
68248;SHT30;55064;49.636;12.164;2024-01-15T15:05:25;-1.06;91.76
68248;SHT30;55064;49.636;12.164;2024-01-15T15:07:51;-1.04;91.58
68248;SHT30;55064;49.636;12.164;2024-01-15T15:10:16;-1.10;91.25
68248;SHT30;55064;49.636;12.164;2024-01-15T15:12:42;-1.06;91.21
68248;SHT30;55064;49.636;12.164;2024-01-15T15:15:07;-1.09;91.35
68248;SHT30;55064;49.636;12.164;2024-01-15T15:17:36;-1.09;91.39